sensor_id;sensor_type;location;lat;lon;timestamp;P1;durP1;ratioP1;P2;durP2;ratioP2
67528;SDS011;54366;51.980;5.856;2022-08-19T00:01:53;3.20;;;3.00;;
67528;SDS011;54366;51.980;5.856;2022-08-19T00:04:22;3.42;;;3.13;;
67528;SDS011;54366;51.980;5.856;2022-08-19T00:06:50;2.60;;;2.40;;
67528;SDS011;54366;51.980;5.856;2022-08-19T00:09:18;2.88;;;2.67;;
67528;SDS011;54366;51.980;5.856;2022-08-19T00:11:46;3.35;;;3.05;;
67528;SDS011;54366;51.980;5.856;2022-08-19T00:14:13;3.40;;;3.05;;
67528;SDS011;54366;51.980;5.856;2022-08-19T00:16:41;3.70;;;3.40;;
67528;SDS011;54366;51.980;5.856;2022-08-19T00:19:09;3.72;;;3.47;;
67528;SDS011;54366;51.980;5.856;2022-08-19T00:21:35;4.00;;;3.70;;
67528;SDS011;54366;51.980;5.856;2022-08-19T00:24:05;3.47;;;3.20;;
67528;SDS011;54366;51.980;5.856;2022-08-19T00:26:37;3.20;;;2.97;;
67528;SDS011;54366;51.980;5.856;2022-08-19T00:29:04;3.35;;;3.05;;
67528;SDS011;54366;51.980;5.856;2022-08-19T00:31:31;3.30;;;3.10;;
67528;SDS011;54366;51.980;5.856;2022-08-19T00:33:58;3.00;;;2.90;;
67528;SDS011;54366;51.980;5.856;2022-08-19T00:36:25;2.92;;;2.72;;
67528;SDS011;54366;51.980;5.856;2022-08-19T00:38:51;2.97;;;2.78;;
67528;SDS011;54366;51.980;5.856;2022-08-19T00:41:19;3.97;;;3.67;;
67528;SDS011;54366;51.980;5.856;2022-08-19T00:43:56;3.72;;;3.40;;
67528;SDS011;54366;51.980;5.856;2022-08-19T00:46:30;4.57;;;4.20;;
67528;SDS011;54366;51.980;5.856;2022-08-19T00:48:58;3.85;;;3.53;;
67528;SDS011;54366;51.980;5.856;2022-08-19T00:51:26;4.10;;;3.80;;
67528;SDS011;54366;51.980;5.856;2022-08-19T00:53:55;4.50;;;4.20;;
67528;SDS011;54366;51.980;5.856;2022-08-19T00:56:24;4.63;;;4.18;;
67528;SDS011;54366;51.980;5.856;2022-08-19T00:58:53;4.47;;;4.13;;
67528;SDS011;54366;51.980;5.856;2022-08-19T01:01:21;5.05;;;4.65;;
67528;SDS011;54366;51.980;5.856;2022-08-19T01:03:48;4.60;;;4.30;;
67528;SDS011;54366;51.980;5.856;2022-08-19T01:06:14;4.65;;;4.35;;
67528;SDS011;54366;51.980;5.856;2022-08-19T01:08:40;4.78;;;4.38;;
67528;SDS011;54366;51.980;5.856;2022-08-19T01:11:06;4.93;;;4.53;;
67528;SDS011;54366;51.980;5.856;2022-08-19T01:13:36;5.65;;;5.18;;
67528;SDS011;54366;51.980;5.856;2022-08-19T01:16:06;5.20;;;4.78;;
67528;SDS011;54366;51.980;5.856;2022-08-19T01:18:39;4.43;;;4.13;;
67528;SDS011;54366;51.980;5.856;2022-08-19T01:24:03;5.22;;;4.93;;
67528;SDS011;54366;51.980;5.856;2022-08-19T01:26:29;5.57;;;5.07;;
67528;SDS011;54366;51.980;5.856;2022-08-19T01:28:57;5.00;;;4.60;;
67528;SDS011;54366;51.980;5.856;2022-08-19T01:31:26;3.28;;;3.08;;
67528;SDS011;54366;51.980;5.856;2022-08-19T01:33:56;4.40;;;4.10;;
67528;SDS011;54366;51.980;5.856;2022-08-19T01:36:29;5.53;;;5.03;;
67528;SDS011;54366;51.980;5.856;2022-08-19T01:38:56;5.13;;;4.63;;
67528;SDS011;54366;51.980;5.856;2022-08-19T01:41:23;4.32;;;4.03;;
67528;SDS011;54366;51.980;5.856;2022-08-19T01:43:50;4.95;;;4.57;;
67528;SDS011;54366;51.980;5.856;2022-08-19T01:46:18;5.45;;;4.95;;
67528;SDS011;54366;51.980;5.856;2022-08-19T01:48:45;5.88;;;5.38;;
67528;SDS011;54366;51.980;5.856;2022-08-19T01:51:12;5.60;;;5.20;;
67528;SDS011;54366;51.980;5.856;2022-08-19T01:53:39;6.05;;;5.55;;
67528;SDS011;54366;51.980;5.856;2022-08-19T01:56:05;7.13;;;6.43;;
67528;SDS011;54366;51.980;5.856;2022-08-19T01:58:36;6.55;;;5.95;;
67528;SDS011;54366;51.980;5.856;2022-08-19T02:01:06;6.32;;;5.82;;
67528;SDS011;54366;51.980;5.856;2022-08-19T02:03:33;6.20;;;5.70;;
67528;SDS011;54366;51.980;5.856;2022-08-19T02:06:00;6.03;;;5.53;;
67528;SDS011;54366;51.980;5.856;2022-08-19T02:08:32;6.20;;;5.80;;
67528;SDS011;54366;51.980;5.856;2022-08-19T02:11:00;6.00;;;5.50;;
67528;SDS011;54366;51.980;5.856;2022-08-19T02:13:27;6.75;;;6.10;;
67528;SDS011;54366;51.980;5.856;2022-08-19T02:15:53;6.97;;;6.38;;
67528;SDS011;54366;51.980;5.856;2022-08-19T02:18:20;6.50;;;6.00;;
67528;SDS011;54366;51.980;5.856;2022-08-19T02:20:46;6.32;;;5.82;;
67528;SDS011;54366;51.980;5.856;2022-08-19T02:23:13;4.93;;;4.53;;
67528;SDS011;54366;51.980;5.856;2022-08-19T02:25:41;4.57;;;4.13;;
67528;SDS011;54366;51.980;5.856;2022-08-19T02:28:11;7.05;;;6.45;;
67528;SDS011;54366;51.980;5.856;2022-08-19T02:30:38;7.70;;;7.00;;
67528;SDS011;54366;51.980;5.856;2022-08-19T02:33:07;7.18;;;6.60;;
67528;SDS011;54366;51.980;5.856;2022-08-19T02:35:33;4.78;;;4.47;;
67528;SDS011;54366;51.980;5.856;2022-08-19T02:37:59;6.80;;;6.30;;
67528;SDS011;54366;51.980;5.856;2022-08-19T02:40:48;6.82;;;6.32;;
67528;SDS011;54366;51.980;5.856;2022-08-19T02:43:17;6.85;;;6.28;;
67528;SDS011;54366;51.980;5.856;2022-08-19T02:45:45;6.35;;;5.85;;
67528;SDS011;54366;51.980;5.856;2022-08-19T02:48:15;8.02;;;7.32;;
67528;SDS011;54366;51.980;5.856;2022-08-19T02:50:43;5.25;;;4.82;;
67528;SDS011;54366;51.980;5.856;2022-08-19T02:53:10;6.78;;;6.28;;
67528;SDS011;54366;51.980;5.856;2022-08-19T02:55:36;5.00;;;4.60;;
67528;SDS011;54366;51.980;5.856;2022-08-19T02:58:09;6.68;;;6.07;;
67528;SDS011;54366;51.980;5.856;2022-08-19T03:00:35;7.47;;;6.78;;
67528;SDS011;54366;51.980;5.856;2022-08-19T03:03:07;5.78;;;5.28;;
67528;SDS011;54366;51.980;5.856;2022-08-19T03:05:34;6.53;;;6.03;;
67528;SDS011;54366;51.980;5.856;2022-08-19T03:08:00;7.70;;;7.00;;
67528;SDS011;54366;51.980;5.856;2022-08-19T03:10:27;7.55;;;6.95;;
67528;SDS011;54366;51.980;5.856;2022-08-19T03:12:53;6.60;;;6.00;;
67528;SDS011;54366;51.980;5.856;2022-08-19T03:15:19;8.10;;;7.30;;
67528;SDS011;54366;51.980;5.856;2022-08-19T03:17:46;7.97;;;7.28;;
67528;SDS011;54366;51.980;5.856;2022-08-19T03:20:12;7.47;;;6.88;;
67528;SDS011;54366;51.980;5.856;2022-08-19T03:22:38;7.22;;;6.63;;
67528;SDS011;54366;51.980;5.856;2022-08-19T03:25:05;8.20;;;7.50;;
67528;SDS011;54366;51.980;5.856;2022-08-19T03:27:31;8.65;;;7.85;;
67528;SDS011;54366;51.980;5.856;2022-08-19T03:29:57;8.10;;;7.32;;
67528;SDS011;54366;51.980;5.856;2022-08-19T03:32:24;8.65;;;7.75;;
67528;SDS011;54366;51.980;5.856;2022-08-19T03:34:51;8.05;;;7.35;;
67528;SDS011;54366;51.980;5.856;2022-08-19T03:37:18;8.68;;;7.97;;
67528;SDS011;54366;51.980;5.856;2022-08-19T03:39:44;8.50;;;7.80;;
67528;SDS011;54366;51.980;5.856;2022-08-19T03:42:10;8.07;;;7.47;;
67528;SDS011;54366;51.980;5.856;2022-08-19T03:44:37;7.82;;;7.10;;
67528;SDS011;54366;51.980;5.856;2022-08-19T03:47:04;8.00;;;7.35;;
67528;SDS011;54366;51.980;5.856;2022-08-19T03:49:31;8.48;;;7.78;;
67528;SDS011;54366;51.980;5.856;2022-08-19T03:52:00;8.18;;;7.57;;
67528;SDS011;54366;51.980;5.856;2022-08-19T03:54:27;8.57;;;7.88;;
67528;SDS011;54366;51.980;5.856;2022-08-19T03:56:54;7.85;;;7.22;;
67528;SDS011;54366;51.980;5.856;2022-08-19T03:59:30;9.00;;;8.23;;
67528;SDS011;54366;51.980;5.856;2022-08-19T04:01:59;7.55;;;6.95;;
67528;SDS011;54366;51.980;5.856;2022-08-19T04:04:28;8.48;;;7.78;;
67528;SDS011;54366;51.980;5.856;2022-08-19T04:06:55;7.88;;;7.18;;
67528;SDS011;54366;51.980;5.856;2022-08-19T04:09:22;8.50;;;7.80;;
67528;SDS011;54366;51.980;5.856;2022-08-19T04:11:50;8.55;;;7.85;;
67528;SDS011;54366;51.980;5.856;2022-08-19T04:14:22;8.63;;;7.93;;
67528;SDS011;54366;51.980;5.856;2022-08-19T04:16:50;8.20;;;7.50;;
67528;SDS011;54366;51.980;5.856;2022-08-19T04:19:17;7.93;;;7.22;;
67528;SDS011;54366;51.980;5.856;2022-08-19T04:21:45;8.55;;;7.75;;
67528;SDS011;54366;51.980;5.856;2022-08-19T04:24:13;8.27;;;7.68;;
67528;SDS011;54366;51.980;5.856;2022-08-19T04:26:40;6.05;;;5.55;;
67528;SDS011;54366;51.980;5.856;2022-08-19T04:29:14;8.70;;;8.00;;
67528;SDS011;54366;51.980;5.856;2022-08-19T04:31:44;8.88;;;8.10;;
67528;SDS011;54366;51.980;5.856;2022-08-19T04:34:12;9.07;;;8.27;;
67528;SDS011;54366;51.980;5.856;2022-08-19T04:36:40;7.25;;;6.65;;
67528;SDS011;54366;51.980;5.856;2022-08-19T04:39:11;7.82;;;7.13;;
67528;SDS011;54366;51.980;5.856;2022-08-19T04:41:43;9.10;;;8.40;;
67528;SDS011;54366;51.980;5.856;2022-08-19T04:44:29;8.77;;;8.07;;
67528;SDS011;54366;51.980;5.856;2022-08-19T04:46:59;8.98;;;8.27;;
67528;SDS011;54366;51.980;5.856;2022-08-19T04:49:26;8.32;;;7.63;;
67528;SDS011;54366;51.980;5.856;2022-08-19T04:51:53;8.48;;;7.68;;
67528;SDS011;54366;51.980;5.856;2022-08-19T04:54:21;9.07;;;8.32;;
67528;SDS011;54366;51.980;5.856;2022-08-19T04:56:51;8.90;;;8.20;;
67528;SDS011;54366;51.980;5.856;2022-08-19T04:59:19;9.95;;;9.05;;
67528;SDS011;54366;51.980;5.856;2022-08-19T05:01:46;9.38;;;8.63;;
67528;SDS011;54366;51.980;5.856;2022-08-19T05:04:17;8.70;;;7.97;;
67528;SDS011;54366;51.980;5.856;2022-08-19T05:06:46;9.60;;;8.80;;
67528;SDS011;54366;51.980;5.856;2022-08-19T05:09:14;9.25;;;8.45;;
67528;SDS011;54366;51.980;5.856;2022-08-19T05:11:41;8.57;;;7.78;;
67528;SDS011;54366;51.980;5.856;2022-08-19T05:14:08;8.40;;;7.70;;
67528;SDS011;54366;51.980;5.856;2022-08-19T05:16:36;9.15;;;8.35;;
67528;SDS011;54366;51.980;5.856;2022-08-19T05:19:02;8.60;;;7.90;;
67528;SDS011;54366;51.980;5.856;2022-08-19T05:21:47;9.50;;;8.70;;
67528;SDS011;54366;51.980;5.856;2022-08-19T05:24:32;9.00;;;8.20;;
67528;SDS011;54366;51.980;5.856;2022-08-19T05:26:59;8.95;;;8.15;;
67528;SDS011;54366;51.980;5.856;2022-08-19T05:29:28;10.13;;;9.20;;
67528;SDS011;54366;51.980;5.856;2022-08-19T05:31:57;9.65;;;8.85;;
67528;SDS011;54366;51.980;5.856;2022-08-19T05:34:25;10.00;;;9.20;;
67528;SDS011;54366;51.980;5.856;2022-08-19T05:36:54;9.70;;;8.90;;
67528;SDS011;54366;51.980;5.856;2022-08-19T05:39:23;10.27;;;9.38;;
67528;SDS011;54366;51.980;5.856;2022-08-19T05:41:52;8.80;;;8.10;;
67528;SDS011;54366;51.980;5.856;2022-08-19T05:44:26;10.13;;;9.32;;
67528;SDS011;54366;51.980;5.856;2022-08-19T05:46:59;10.20;;;9.40;;
67528;SDS011;54366;51.980;5.856;2022-08-19T05:49:27;11.63;;;10.63;;
67528;SDS011;54366;51.980;5.856;2022-08-19T05:51:55;11.32;;;10.43;;
67528;SDS011;54366;51.980;5.856;2022-08-19T05:54:22;10.07;;;9.18;;
67528;SDS011;54366;51.980;5.856;2022-08-19T05:56:50;11.75;;;10.75;;
67528;SDS011;54366;51.980;5.856;2022-08-19T05:59:17;13.73;;;12.63;;
67528;SDS011;54366;51.980;5.856;2022-08-19T06:01:47;15.02;;;13.73;;
67528;SDS011;54366;51.980;5.856;2022-08-19T06:04:16;12.60;;;11.50;;
67528;SDS011;54366;51.980;5.856;2022-08-19T06:06:45;11.45;;;10.48;;
67528;SDS011;54366;51.980;5.856;2022-08-19T06:09:13;11.13;;;10.23;;
67528;SDS011;54366;51.980;5.856;2022-08-19T06:11:40;11.20;;;10.30;;
67528;SDS011;54366;51.980;5.856;2022-08-19T06:14:10;12.32;;;11.30;;
67528;SDS011;54366;51.980;5.856;2022-08-19T06:16:39;11.88;;;10.88;;
67528;SDS011;54366;51.980;5.856;2022-08-19T06:19:08;12.85;;;11.75;;
67528;SDS011;54366;51.980;5.856;2022-08-19T06:21:36;12.77;;;11.70;;
67528;SDS011;54366;51.980;5.856;2022-08-19T06:24:06;10.38;;;9.38;;
67528;SDS011;54366;51.980;5.856;2022-08-19T06:26:36;10.77;;;9.88;;
67528;SDS011;54366;51.980;5.856;2022-08-19T06:29:05;12.10;;;10.90;;
67528;SDS011;54366;51.980;5.856;2022-08-19T06:31:33;16.08;;;14.68;;
67528;SDS011;54366;51.980;5.856;2022-08-19T06:34:01;13.20;;;12.10;;
67528;SDS011;54366;51.980;5.856;2022-08-19T06:36:34;12.10;;;11.00;;
67528;SDS011;54366;51.980;5.856;2022-08-19T06:39:07;12.18;;;11.07;;
67528;SDS011;54366;51.980;5.856;2022-08-19T06:41:36;15.10;;;13.75;;
67528;SDS011;54366;51.980;5.856;2022-08-19T06:44:05;12.63;;;11.63;;
67528;SDS011;54366;51.980;5.856;2022-08-19T06:46:31;13.10;;;11.88;;
67528;SDS011;54366;51.980;5.856;2022-08-19T06:48:58;12.43;;;11.30;;
67528;SDS011;54366;51.980;5.856;2022-08-19T06:51:25;12.60;;;11.43;;
67528;SDS011;54366;51.980;5.856;2022-08-19T06:53:52;15.32;;;13.82;;
67528;SDS011;54366;51.980;5.856;2022-08-19T06:56:20;21.00;;;18.83;;
67528;SDS011;54366;51.980;5.856;2022-08-19T06:58:50;27.08;;;21.90;;
67528;SDS011;54366;51.980;5.856;2022-08-19T07:01:19;22.60;;;19.80;;
67528;SDS011;54366;51.980;5.856;2022-08-19T07:03:45;21.45;;;18.92;;
67528;SDS011;54366;51.980;5.856;2022-08-19T07:06:13;42.05;;;32.70;;
67528;SDS011;54366;51.980;5.856;2022-08-19T07:08:46;45.90;;;34.95;;
67528;SDS011;54366;51.980;5.856;2022-08-19T07:11:14;44.50;;;32.85;;
67528;SDS011;54366;51.980;5.856;2022-08-19T07:13:43;40.15;;;31.60;;
67528;SDS011;54366;51.980;5.856;2022-08-19T07:16:12;37.20;;;29.60;;
67528;SDS011;54366;51.980;5.856;2022-08-19T07:18:41;39.00;;;29.95;;
67528;SDS011;54366;51.980;5.856;2022-08-19T07:21:09;37.05;;;30.60;;
67528;SDS011;54366;51.980;5.856;2022-08-19T07:23:38;34.45;;;28.67;;
67528;SDS011;54366;51.980;5.856;2022-08-19T07:26:06;35.03;;;29.60;;
67528;SDS011;54366;51.980;5.856;2022-08-19T07:28:33;33.13;;;26.85;;
67528;SDS011;54366;51.980;5.856;2022-08-19T07:31:01;33.08;;;28.55;;
67528;SDS011;54366;51.980;5.856;2022-08-19T07:33:29;47.53;;;37.45;;
67528;SDS011;54366;51.980;5.856;2022-08-19T07:35:58;38.88;;;31.30;;
67528;SDS011;54366;51.980;5.856;2022-08-19T07:38:24;34.60;;;29.20;;
67528;SDS011;54366;51.980;5.856;2022-08-19T07:40:51;41.65;;;33.47;;
67528;SDS011;54366;51.980;5.856;2022-08-19T07:43:17;48.72;;;37.20;;
67528;SDS011;54366;51.980;5.856;2022-08-19T07:45:48;48.03;;;39.85;;
67528;SDS011;54366;51.980;5.856;2022-08-19T07:48:14;61.03;;;48.65;;
67528;SDS011;54366;51.980;5.856;2022-08-19T07:50:40;49.40;;;41.17;;
67528;SDS011;54366;51.980;5.856;2022-08-19T07:53:07;45.10;;;36.40;;
67528;SDS011;54366;51.980;5.856;2022-08-19T07:55:33;40.90;;;36.38;;
67528;SDS011;54366;51.980;5.856;2022-08-19T07:57:59;41.92;;;35.92;;
67528;SDS011;54366;51.980;5.856;2022-08-19T08:00:26;51.70;;;42.33;;
67528;SDS011;54366;51.980;5.856;2022-08-19T08:02:52;45.75;;;39.05;;
67528;SDS011;54366;51.980;5.856;2022-08-19T08:05:18;44.75;;;37.97;;
67528;SDS011;54366;51.980;5.856;2022-08-19T08:08:03;45.08;;;38.67;;
67528;SDS011;54366;51.980;5.856;2022-08-19T08:10:48;44.90;;;39.70;;
67528;SDS011;54366;51.980;5.856;2022-08-19T08:13:15;37.63;;;33.53;;
67528;SDS011;54366;51.980;5.856;2022-08-19T08:15:42;49.35;;;40.80;;
67528;SDS011;54366;51.980;5.856;2022-08-19T08:18:10;39.60;;;35.33;;
67528;SDS011;54366;51.980;5.856;2022-08-19T08:20:37;43.00;;;35.97;;
67528;SDS011;54366;51.980;5.856;2022-08-19T08:23:04;35.33;;;31.52;;
67528;SDS011;54366;51.980;5.856;2022-08-19T08:25:48;36.22;;;32.33;;
67528;SDS011;54366;51.980;5.856;2022-08-19T08:28:15;44.72;;;38.60;;
67528;SDS011;54366;51.980;5.856;2022-08-19T08:30:42;51.45;;;44.95;;
67528;SDS011;54366;51.980;5.856;2022-08-19T08:33:11;56.28;;;47.83;;
67528;SDS011;54366;51.980;5.856;2022-08-19T08:35:38;54.90;;;45.78;;
67528;SDS011;54366;51.980;5.856;2022-08-19T08:38:07;44.38;;;38.03;;
67528;SDS011;54366;51.980;5.856;2022-08-19T08:40:47;39.42;;;35.13;;
67528;SDS011;54366;51.980;5.856;2022-08-19T08:45:56;41.88;;;35.97;;
67528;SDS011;54366;51.980;5.856;2022-08-19T08:48:37;44.25;;;37.95;;
67528;SDS011;54366;51.980;5.856;2022-08-19T08:51:09;43.13;;;36.90;;
67528;SDS011;54366;51.980;5.856;2022-08-19T08:53:39;37.45;;;32.05;;
67528;SDS011;54366;51.980;5.856;2022-08-19T08:56:08;37.58;;;31.67;;
67528;SDS011;54366;51.980;5.856;2022-08-19T08:58:46;38.30;;;32.50;;
67528;SDS011;54366;51.980;5.856;2022-08-19T09:01:19;31.95;;;28.48;;
67528;SDS011;54366;51.980;5.856;2022-08-19T09:03:46;33.22;;;29.75;;
67528;SDS011;54366;51.980;5.856;2022-08-19T09:09:09;39.17;;;32.80;;
67528;SDS011;54366;51.980;5.856;2022-08-19T09:14:39;33.60;;;30.02;;
67528;SDS011;54366;51.980;5.856;2022-08-19T09:17:13;34.38;;;30.65;;
67528;SDS011;54366;51.980;5.856;2022-08-19T09:22:19;32.72;;;29.13;;
67528;SDS011;54366;51.980;5.856;2022-08-19T09:24:48;33.03;;;29.42;;
67528;SDS011;54366;51.980;5.856;2022-08-19T09:27:15;32.45;;;27.50;;
67528;SDS011;54366;51.980;5.856;2022-08-19T09:29:42;33.05;;;28.02;;
67528;SDS011;54366;51.980;5.856;2022-08-19T09:32:08;29.55;;;26.45;;
67528;SDS011;54366;51.980;5.856;2022-08-19T09:34:34;29.27;;;26.25;;
67528;SDS011;54366;51.980;5.856;2022-08-19T09:37:00;28.98;;;25.88;;
67528;SDS011;54366;51.980;5.856;2022-08-19T09:39:28;34.50;;;30.73;;
67528;SDS011;54366;51.980;5.856;2022-08-19T09:41:56;30.05;;;26.38;;
67528;SDS011;54366;51.980;5.856;2022-08-19T09:44:22;25.05;;;22.48;;
67528;SDS011;54366;51.980;5.856;2022-08-19T09:46:48;24.50;;;21.77;;
67528;SDS011;54366;51.980;5.856;2022-08-19T09:49:17;24.52;;;21.92;;
67528;SDS011;54366;51.980;5.856;2022-08-19T09:51:44;26.58;;;23.77;;
67528;SDS011;54366;51.980;5.856;2022-08-19T09:54:14;28.23;;;25.13;;
67528;SDS011;54366;51.980;5.856;2022-08-19T09:56:40;28.30;;;25.15;;
67528;SDS011;54366;51.980;5.856;2022-08-19T09:59:07;26.00;;;22.20;;
67528;SDS011;54366;51.980;5.856;2022-08-19T10:01:33;29.80;;;25.45;;
67528;SDS011;54366;51.980;5.856;2022-08-19T10:03:59;24.92;;;22.10;;
67528;SDS011;54366;51.980;5.856;2022-08-19T10:06:27;25.33;;;22.58;;
67528;SDS011;54366;51.980;5.856;2022-08-19T10:08:59;28.42;;;23.77;;
67528;SDS011;54366;51.980;5.856;2022-08-19T10:11:25;25.77;;;22.88;;
67528;SDS011;54366;51.980;5.856;2022-08-19T10:13:52;29.70;;;23.42;;
67528;SDS011;54366;51.980;5.856;2022-08-19T10:16:19;21.98;;;19.67;;
67528;SDS011;54366;51.980;5.856;2022-08-19T10:18:48;29.02;;;24.45;;
67528;SDS011;54366;51.980;5.856;2022-08-19T10:21:25;20.65;;;18.50;;
67528;SDS011;54366;51.980;5.856;2022-08-19T10:23:58;27.08;;;22.45;;
67528;SDS011;54366;51.980;5.856;2022-08-19T10:26:28;22.92;;;20.52;;
67528;SDS011;54366;51.980;5.856;2022-08-19T10:28:57;23.55;;;20.60;;
67528;SDS011;54366;51.980;5.856;2022-08-19T10:31:26;22.98;;;20.50;;
67528;SDS011;54366;51.980;5.856;2022-08-19T10:33:54;25.83;;;22.85;;
67528;SDS011;54366;51.980;5.856;2022-08-19T10:36:30;19.88;;;17.60;;
67528;SDS011;54366;51.980;5.856;2022-08-19T10:39:00;25.67;;;22.17;;
67528;SDS011;54366;51.980;5.856;2022-08-19T10:41:29;24.83;;;21.80;;
67528;SDS011;54366;51.980;5.856;2022-08-19T10:43:59;22.83;;;20.42;;
67528;SDS011;54366;51.980;5.856;2022-08-19T10:46:31;28.40;;;22.87;;
67528;SDS011;54366;51.980;5.856;2022-08-19T10:49:02;19.83;;;17.73;;
67528;SDS011;54366;51.980;5.856;2022-08-19T10:51:30;23.95;;;20.20;;
67528;SDS011;54366;51.980;5.856;2022-08-19T10:54:16;22.27;;;19.95;;
67528;SDS011;54366;51.980;5.856;2022-08-19T10:56:43;28.52;;;25.40;;
67528;SDS011;54366;51.980;5.856;2022-08-19T11:01:47;22.80;;;20.42;;
67528;SDS011;54366;51.980;5.856;2022-08-19T11:04:14;20.67;;;18.48;;
67528;SDS011;54366;51.980;5.856;2022-08-19T11:06:44;20.35;;;18.15;;
67528;SDS011;54366;51.980;5.856;2022-08-19T11:09:20;19.92;;;17.73;;
67528;SDS011;54366;51.980;5.856;2022-08-19T11:11:52;20.05;;;17.92;;
67528;SDS011;54366;51.980;5.856;2022-08-19T11:14:20;19.85;;;17.35;;
67528;SDS011;54366;51.980;5.856;2022-08-19T11:16:47;18.55;;;16.65;;
67528;SDS011;54366;51.980;5.856;2022-08-19T11:19:14;21.00;;;18.50;;
67528;SDS011;54366;51.980;5.856;2022-08-19T11:21:45;19.55;;;17.38;;
67528;SDS011;54366;51.980;5.856;2022-08-19T11:24:14;19.80;;;17.83;;
67528;SDS011;54366;51.980;5.856;2022-08-19T11:26:46;17.05;;;15.25;;
67528;SDS011;54366;51.980;5.856;2022-08-19T11:29:15;17.85;;;16.20;;
67528;SDS011;54366;51.980;5.856;2022-08-19T11:31:44;17.17;;;15.57;;
67528;SDS011;54366;51.980;5.856;2022-08-19T11:34:13;16.95;;;15.32;;
67528;SDS011;54366;51.980;5.856;2022-08-19T11:36:44;17.70;;;15.85;;
67528;SDS011;54366;51.980;5.856;2022-08-19T11:39:12;16.33;;;14.65;;
67528;SDS011;54366;51.980;5.856;2022-08-19T11:41:40;16.73;;;14.98;;
67528;SDS011;54366;51.980;5.856;2022-08-19T11:44:06;16.75;;;15.10;;
67528;SDS011;54366;51.980;5.856;2022-08-19T11:46:33;14.43;;;13.02;;
67528;SDS011;54366;51.980;5.856;2022-08-19T11:49:01;16.42;;;14.65;;
67528;SDS011;54366;51.980;5.856;2022-08-19T11:51:29;16.70;;;15.00;;
67528;SDS011;54366;51.980;5.856;2022-08-19T11:53:57;17.17;;;15.57;;
67528;SDS011;54366;51.980;5.856;2022-08-19T11:56:24;18.90;;;16.90;;
67528;SDS011;54366;51.980;5.856;2022-08-19T11:58:52;15.43;;;13.82;;
67528;SDS011;54366;51.980;5.856;2022-08-19T12:01:20;15.85;;;14.45;;
67528;SDS011;54366;51.980;5.856;2022-08-19T12:03:48;16.20;;;14.38;;
67528;SDS011;54366;51.980;5.856;2022-08-19T12:06:17;16.10;;;14.50;;
67528;SDS011;54366;51.980;5.856;2022-08-19T12:08:48;15.50;;;13.87;;
67528;SDS011;54366;51.980;5.856;2022-08-19T12:11:15;15.32;;;13.85;;
67528;SDS011;54366;51.980;5.856;2022-08-19T12:13:41;19.58;;;17.77;;
67528;SDS011;54366;51.980;5.856;2022-08-19T12:16:13;17.58;;;15.80;;
67528;SDS011;54366;51.980;5.856;2022-08-19T12:18:42;21.08;;;18.98;;
67528;SDS011;54366;51.980;5.856;2022-08-19T12:21:17;22.35;;;20.27;;
67528;SDS011;54366;51.980;5.856;2022-08-19T12:23:47;18.55;;;16.75;;
67528;SDS011;54366;51.980;5.856;2022-08-19T12:26:15;19.48;;;17.73;;
67528;SDS011;54366;51.980;5.856;2022-08-19T12:28:42;20.48;;;18.52;;
67528;SDS011;54366;51.980;5.856;2022-08-19T12:31:10;17.77;;;16.05;;
67528;SDS011;54366;51.980;5.856;2022-08-19T12:33:39;20.67;;;18.67;;
67528;SDS011;54366;51.980;5.856;2022-08-19T12:36:07;18.80;;;16.92;;
67528;SDS011;54366;51.980;5.856;2022-08-19T12:38:36;18.15;;;16.35;;
67528;SDS011;54366;51.980;5.856;2022-08-19T12:41:04;19.50;;;17.60;;
67528;SDS011;54366;51.980;5.856;2022-08-19T12:43:32;16.95;;;15.35;;
67528;SDS011;54366;51.980;5.856;2022-08-19T12:46:00;16.20;;;14.70;;
67528;SDS011;54366;51.980;5.856;2022-08-19T12:48:28;18.20;;;16.48;;
67528;SDS011;54366;51.980;5.856;2022-08-19T12:50:54;18.50;;;16.70;;
67528;SDS011;54366;51.980;5.856;2022-08-19T12:53:21;20.42;;;18.50;;
67528;SDS011;54366;51.980;5.856;2022-08-19T12:55:47;19.48;;;17.50;;
67528;SDS011;54366;51.980;5.856;2022-08-19T12:58:13;19.10;;;17.30;;
67528;SDS011;54366;51.980;5.856;2022-08-19T13:00:39;20.30;;;18.30;;
67528;SDS011;54366;51.980;5.856;2022-08-19T13:03:06;18.50;;;16.85;;
67528;SDS011;54366;51.980;5.856;2022-08-19T13:05:32;17.42;;;15.93;;
67528;SDS011;54366;51.980;5.856;2022-08-19T13:07:59;21.13;;;19.17;;
67528;SDS011;54366;51.980;5.856;2022-08-19T13:10:28;17.55;;;16.05;;
67528;SDS011;54366;51.980;5.856;2022-08-19T13:13:00;19.98;;;18.00;;
67528;SDS011;54366;51.980;5.856;2022-08-19T13:15:32;19.90;;;17.98;;
67528;SDS011;54366;51.980;5.856;2022-08-19T13:18:00;15.05;;;13.70;;
67528;SDS011;54366;51.980;5.856;2022-08-19T13:20:26;16.02;;;14.52;;
67528;SDS011;54366;51.980;5.856;2022-08-19T13:22:53;14.75;;;13.45;;
67528;SDS011;54366;51.980;5.856;2022-08-19T13:25:20;16.52;;;14.93;;
67528;SDS011;54366;51.980;5.856;2022-08-19T13:27:47;21.83;;;19.67;;
67528;SDS011;54366;51.980;5.856;2022-08-19T13:30:15;18.85;;;16.98;;
67528;SDS011;54366;51.980;5.856;2022-08-19T13:33:00;17.35;;;15.60;;
67528;SDS011;54366;51.980;5.856;2022-08-19T13:35:36;14.98;;;13.68;;
67528;SDS011;54366;51.980;5.856;2022-08-19T13:38:08;14.07;;;12.82;;
67528;SDS011;54366;51.980;5.856;2022-08-19T13:40:34;15.52;;;13.93;;
67528;SDS011;54366;51.980;5.856;2022-08-19T13:43:01;18.30;;;16.60;;
67528;SDS011;54366;51.980;5.856;2022-08-19T13:45:29;13.57;;;12.38;;
67528;SDS011;54366;51.980;5.856;2022-08-19T13:47:59;15.68;;;14.23;;
67528;SDS011;54366;51.980;5.856;2022-08-19T13:50:30;15.40;;;14.10;;
67528;SDS011;54366;51.980;5.856;2022-08-19T13:52:57;13.38;;;12.00;;
67528;SDS011;54366;51.980;5.856;2022-08-19T13:55:24;13.38;;;12.27;;
67528;SDS011;54366;51.980;5.856;2022-08-19T13:57:53;13.93;;;12.73;;
67528;SDS011;54366;51.980;5.856;2022-08-19T14:00:22;15.65;;;14.10;;
67528;SDS011;54366;51.980;5.856;2022-08-19T14:02:52;13.82;;;12.63;;
67528;SDS011;54366;51.980;5.856;2022-08-19T14:05:21;13.65;;;12.45;;
67528;SDS011;54366;51.980;5.856;2022-08-19T14:07:48;16.60;;;15.02;;
67528;SDS011;54366;51.980;5.856;2022-08-19T14:10:15;16.67;;;14.98;;
67528;SDS011;54366;51.980;5.856;2022-08-19T14:12:42;14.52;;;13.32;;
67528;SDS011;54366;51.980;5.856;2022-08-19T14:15:09;17.73;;;15.93;;
67528;SDS011;54366;51.980;5.856;2022-08-19T14:17:40;14.65;;;13.18;;
67528;SDS011;54366;51.980;5.856;2022-08-19T14:20:08;12.77;;;11.60;;
67528;SDS011;54366;51.980;5.856;2022-08-19T14:22:36;17.00;;;15.30;;
67528;SDS011;54366;51.980;5.856;2022-08-19T14:25:05;17.10;;;15.40;;
67528;SDS011;54366;51.980;5.856;2022-08-19T14:27:38;17.35;;;15.27;;
67528;SDS011;54366;51.980;5.856;2022-08-19T14:30:05;15.63;;;14.07;;
67528;SDS011;54366;51.980;5.856;2022-08-19T14:32:35;16.20;;;14.57;;
67528;SDS011;54366;51.980;5.856;2022-08-19T14:35:01;14.57;;;13.07;;
67528;SDS011;54366;51.980;5.856;2022-08-19T14:37:29;19.63;;;17.58;;
67528;SDS011;54366;51.980;5.856;2022-08-19T14:39:55;15.55;;;14.02;;
67528;SDS011;54366;51.980;5.856;2022-08-19T14:42:21;15.35;;;13.98;;
67528;SDS011;54366;51.980;5.856;2022-08-19T14:44:47;15.20;;;13.73;;
67528;SDS011;54366;51.980;5.856;2022-08-19T14:47:14;13.45;;;12.25;;
67528;SDS011;54366;51.980;5.856;2022-08-19T14:49:40;13.32;;;12.07;;
67528;SDS011;54366;51.980;5.856;2022-08-19T14:52:06;13.15;;;11.93;;
67528;SDS011;54366;51.980;5.856;2022-08-19T14:54:32;8.80;;;8.00;;
67528;SDS011;54366;51.980;5.856;2022-08-19T14:56:59;8.13;;;7.32;;